Time;durP1;ratioP1;P1;durP2;ratioP2;P2;SDS_P1;SDS_P2;PMS_P1;PMS_P2;Temp;Humidity;BMP_temperature;BMP_pressure;BME280_temperature;BME280_humidity;BME280_pressure;Samples;Min_cycle;Max_cycle;Signal;HPM_P1;HPM_P2
2024/01/30 00:01:54;;;;;;;250.80;11.15;;;;;;;20.09;49.19;100873.13;7290847;19;132327;-35
2024/01/30 00:04:19;;;;;;;232.70;9.93;;;;;;;20.12;48.85;100872.94;7296875;19;129847;-40
2024/01/30 00:06:45;;;;;;;162.23;7.03;;;;;;;20.09;48.94;100867.91;7297678;19;129655;-35
2024/01/30 00:09:10;;;;;;;87.13;4.38;;;;;;;20.10;48.61;100869.56;7296503;19;130503;-38
2024/01/30 00:11:36;;;;;;;232.52;9.85;;;;;;;20.11;48.75;100866.06;7294522;19;129436;-40
2024/01/30 00:14:03;;;;;;;156.70;6.90;;;;;;;20.20;48.89;100869.84;7297849;19;130217;-38
2024/01/30 00:16:28;;;;;;;91.47;4.50;;;;;;;20.09;48.80;100859.25;7296128;19;130749;-32
2024/01/30 00:18:54;;;;;;;269.80;11.98;;;;;;;20.11;49.00;100870.44;7295055;19;130385;-39
2024/01/30 00:21:20;;;;;;;225.27;9.43;;;;;;;20.09;48.67;100867.06;7295493;19;130650;-40
2024/01/30 00:23:46;;;;;;;174.40;7.38;;;;;;;20.06;48.86;100859.44;7297150;19;129843;-34
2024/01/30 00:26:11;;;;;;;83.32;4.22;;;;;;;20.11;48.84;100865.19;7294498;19;130821;-35
2024/01/30 00:28:42;;;;;;;173.27;7.43;;;;;;;20.01;49.59;100838.00;7298432;19;131445;-39
2024/01/30 00:31:12;;;;;;;155.20;7.05;;;;;;;20.17;48.87;100859.59;7293762;19;131470;-40
2024/01/30 00:33:37;;;;;;;109.15;5.13;;;;;;;20.11;48.90;100862.59;7297135;19;130210;-37
2024/01/30 00:36:03;;;;;;;227.85;9.77;;;;;;;20.08;48.77;100855.78;7294490;19;130058;-40
2024/01/30 00:38:28;;;;;;;172.05;7.57;;;;;;;20.10;48.70;100853.06;7297474;19;129685;-39
2024/01/30 00:40:53;;;;;;;232.90;9.75;;;;;;;20.09;48.66;100861.84;7290653;19;130610;-37
2024/01/30 00:43:19;;;;;;;254.77;10.98;;;;;;;20.08;48.48;100857.56;7297937;19;131265;-35
2024/01/30 00:45:45;;;;;;;183.00;7.63;;;;;;;20.09;49.01;100856.63;7295792;19;131881;-37
2024/01/30 00:48:10;;;;;;;190.55;8.73;;;;;;;20.03;49.78;100850.00;7294436;19;130420;-40
2024/01/30 00:50:36;;;;;;;217.48;9.60;;;;;;;20.00;50.73;100859.84;7296031;19;129920;-36
2024/01/30 00:53:01;;;;;;;166.02;7.22;;;;;;;19.95;51.10;100854.09;7296295;19;129102;-36
2024/01/30 00:55:26;;;;;;;168.23;7.50;;;;;;;19.90;50.94;100854.34;7294614;19;132260;-39
2024/01/30 00:57:52;;;;;;;257.92;11.50;;;;;;;19.83;51.37;100854.84;7293254;19;130200;-38
2024/01/30 01:00:17;;;;;;;233.60;9.88;;;;;;;19.84;51.22;100857.38;7297443;19;130048;-38
2024/01/30 01:02:43;;;;;;;460.10;20.08;;;;;;;19.77;51.71;100868.28;7281090;19;129761;-36
2024/01/30 01:05:09;;;;;;;238.30;10.20;;;;;;;19.60;51.66;100842.44;7271766;19;130751;-38
2024/01/30 01:07:34;;;;;;;220.32;9.82;;;;;;;19.73;51.46;100875.47;7288790;19;131721;-39
2024/01/30 01:10:00;;;;;;;234.80;10.70;;;;;;;19.70;51.75;100874.84;7293638;19;131189;-38
2024/01/30 01:12:25;;;;;;;202.98;8.65;;;;;;;19.66;52.00;100863.75;7292408;19;130725;-34
2024/01/30 01:14:51;;;;;;;206.75;9.50;;;;;;;19.65;51.64;100869.06;7294157;19;130303;-35
2024/01/30 01:17:18;;;;;;;368.27;16.70;;;;;;;19.73;51.53;100859.84;7291324;19;129378;-36
2024/01/30 01:19:43;;;;;;;166.60;7.22;;;;;;;19.83;50.94;100870.50;7295491;19;129592;-40
2024/01/30 01:22:09;;;;;;;237.25;10.48;;;;;;;19.90;50.47;100856.97;7289375;19;129859;-38
2024/01/30 01:24:34;;;;;;;199.27;8.55;;;;;;;19.94;50.12;100857.59;7295857;19;131228;-38
2024/01/30 01:26:59;;;;;;;195.30;8.75;;;;;;;19.94;49.43;100858.47;7295972;19;132065;-38
2024/01/30 01:29:31;;;;;;;192.52;8.43;;;;;;;19.94;49.98;100855.84;7295287;19;129544;-39
2024/01/30 01:31:57;;;;;;;188.43;8.13;;;;;;;19.93;50.06;100850.72;7292800;19;129580;-38
2024/01/30 01:34:23;;;;;;;208.57;8.80;;;;;;;19.95;49.26;100862.72;7293919;19;131907;-38
2024/01/30 01:36:49;;;;;;;136.50;6.18;;;;;;;19.97;49.47;100855.66;7295720;19;130641;-38
2024/01/30 01:39:14;;;;;;;224.88;9.82;;;;;;;19.97;49.54;100852.19;7294140;19;130695;-37
2024/01/30 01:41:40;;;;;;;155.05;6.85;;;;;;;20.01;49.03;100853.69;7292806;19;129395;-38
2024/01/30 01:44:05;;;;;;;171.82;7.57;;;;;;;20.01;49.22;100858.91;7293537;19;129437;-37
2024/01/30 01:46:33;;;;;;;168.52;7.40;;;;;;;19.98;49.72;100848.66;7294500;19;130531;-38
2024/01/30 01:48:59;;;;;;;125.53;5.70;;;;;;;19.90;49.24;100843.91;7291051;19;130099;-38
2024/01/30 01:51:27;;;;;;;267.48;11.32;;;;;;;19.99;49.22;100860.75;7287653;19;129572;-38
2024/01/30 01:53:54;;;;;;;172.85;7.53;;;;;;;19.97;48.96;100857.41;7294901;19;129891;-38
2024/01/30 01:56:19;;;;;;;159.63;7.13;;;;;;;19.98;49.23;100848.66;7284657;19;131173;-38
2024/01/30 01:58:47;;;;;;;111.80;5.22;;;;;;;20.00;49.48;100857.25;7293318;19;130107;-38
2024/01/30 02:01:14;;;;;;;325.20;13.93;;;;;;;19.98;48.92;100857.31;7287468;19;129926;-36
2024/01/30 02:03:40;;;;;;;163.55;7.50;;;;;;;20.00;49.09;100852.84;7292376;19;130628;-37
2024/01/30 02:06:06;;;;;;;196.13;8.63;;;;;;;19.83;49.34;100820.94;7292998;19;131984;-35
2024/01/30 02:08:32;;;;;;;175.50;8.23;;;;;;;20.00;49.26;100847.59;7291005;19;131013;-36
2024/01/30 02:10:57;;;;;;;258.33;11.65;;;;;;;19.99;48.91;100842.50;7291180;19;130279;-39
2024/01/30 02:13:23;;;;;;;246.95;10.40;;;;;;;19.98;48.80;100849.47;7288906;19;131021;-39
2024/01/30 02:15:51;;;;;;;130.98;6.20;;;;;;;20.00;50.20;100844.19;7292709;19;131266;-39
2024/01/30 02:18:17;;;;;;;190.93;8.73;;;;;;;19.99;50.21;100845.09;7287279;19;130957;-38
2024/01/30 02:20:43;;;;;;;274.60;11.35;;;;;;;19.95;50.23;100841.03;7287773;19;130593;-39
2024/01/30 02:23:11;;;;;;;141.77;6.20;;;;;;;19.89;50.82;100846.63;7293383;19;130636;-38
2024/01/30 02:25:44;;;;;;;228.10;10.05;;;;;;;19.86;51.15;100841.59;7292698;19;131158;-36
2024/01/30 02:28:13;;;;;;;216.80;9.85;;;;;;;19.80;51.32;100840.22;7290480;19;131236;-38
2024/01/30 02:30:39;;;;;;;183.40;8.18;;;;;;;19.80;50.95;100839.41;7291671;19;130616;-38
2024/01/30 02:33:05;;;;;;;229.97;9.67;;;;;;;19.60;51.06;100808.53;7290280;19;130208;-37
2024/01/30 02:35:30;;;;;;;212.10;9.10;;;;;;;19.74;51.98;100831.94;7291509;19;129197;-39
2024/01/30 02:37:55;;;;;;;199.20;9.38;;;;;;;19.76;52.03;100837.91;7291950;19;129504;-38
2024/01/30 02:40:21;;;;;;;207.60;8.73;;;;;;;19.74;51.57;100831.94;7290018;19;128940;-37
2024/01/30 02:42:46;;;;;;;198.32;8.40;;;;;;;19.59;51.83;100809.44;7292173;19;130249;-39
2024/01/30 02:45:12;;;;;;;190.05;8.70;;;;;;;19.71;51.62;100834.75;7293425;19;130596;-37
2024/01/30 02:47:38;;;;;;;210.73;9.00;;;;;;;19.75;51.21;100831.03;7293936;19;129356;-39
2024/01/30 02:50:04;;;;;;;222.63;9.55;;;;;;;19.68;50.54;100801.03;7293924;19;130976;-38
2024/01/30 02:52:30;;;;;;;152.77;6.70;;;;;;;19.87;50.46;100833.69;7288683;19;130606;-39
2024/01/30 02:54:55;;;;;;;383.35;16.13;;;;;;;19.88;49.89;100829.31;7286249;19;130064;-38
2024/01/30 02:57:21;;;;;;;242.13;11.02;;;;;;;19.92;49.85;100828.16;7293207;19;130996;-38
2024/01/30 02:59:46;;;;;;;242.13;10.52;;;;;;;19.94;50.05;100834.13;7289498;19;130492;-38
2024/01/30 03:02:11;;;;;;;156.13;7.10;;;;;;;19.91;49.91;100827.34;7282541;19;130781;-35
2024/01/30 03:04:37;;;;;;;139.75;6.25;;;;;;;19.95;49.56;100826.19;7288714;19;129706;-37
2024/01/30 03:07:03;;;;;;;314.15;13.38;;;;;;;19.95;49.89;100822.75;7286177;19;129828;-38
2024/01/30 03:09:28;;;;;;;208.93;8.40;;;;;;;19.96;49.48;100821.81;7291396;19;131161;-39
2024/01/30 03:11:54;;;;;;;140.55;6.30;;;;;;;19.97;49.27;100826.09;7287728;19;130161;-37
2024/01/30 03:14:19;;;;;;;232.25;10.32;;;;;;;19.96;49.46;100830.50;7289042;19;130412;-37
2024/01/30 03:16:44;;;;;;;197.30;8.38;;;;;;;19.98;48.98;100830.38;7292508;19;130391;-38
2024/01/30 03:19:10;;;;;;;211.30;8.98;;;;;;;20.01;48.94;100822.34;7292993;19;129967;-39
2024/01/30 03:21:35;;;;;;;151.18;7.00;;;;;;;19.99;49.58;100817.25;7290305;19;130179;-38
2024/01/30 03:24:01;;;;;;;234.40;9.77;;;;;;;20.01;49.25;100817.97;7290292;19;130341;-38
2024/01/30 03:26:26;;;;;;;133.52;6.38;;;;;;;20.04;48.94;100812.56;7288755;19;130139;-37
2024/01/30 03:28:52;;;;;;;182.93;8.23;;;;;;;20.05;49.23;100819.44;7291713;19;129797;-38
2024/01/30 03:31:17;;;;;;;197.73;9.07;;;;;;;20.04;49.19;100816.94;7287896;19;131006;-39
2024/01/30 03:33:42;;;;;;;220.18;9.65;;;;;;;20.02;48.61;100819.63;7291588;19;131086;-38
2024/01/30 03:36:08;;;;;;;173.00;7.47;;;;;;;20.04;48.96;100816.94;7292818;19;129464;-38
2024/01/30 03:38:34;;;;;;;158.45;7.00;;;;;;;20.00;49.21;100815.47;7291100;19;129375;-38
2024/01/30 03:41:00;;;;;;;120.60;5.63;;;;;;;20.04;48.87;100816.94;7290497;19;129976;-40
2024/01/30 03:43:25;;;;;;;271.70;11.77;;;;;;;20.02;48.70;100819.63;7291271;19;130602;-37
2024/01/30 03:45:51;;;;;;;104.30;4.95;;;;;;;20.00;50.05;100815.47;7289285;19;130244;-37
2024/01/30 03:48:16;;;;;;;190.30;8.15;;;;;;;19.98;50.06;100817.34;7290532;19;130203;-38
2024/01/30 03:50:41;;;;;;;273.25;11.73;;;;;;;19.97;50.72;100820.88;7283167;19;131430;-38
2024/01/30 03:53:07;;;;;;;216.93;9.48;;;;;;;19.92;50.61;100815.09;7289271;19;130651;-36
2024/01/30 03:55:32;;;;;;;162.20;7.45;;;;;;;19.93;50.67;100820.22;7289611;19;129594;-38
2024/01/30 03:57:57;;;;;;;205.93;9.50;;;;;;;19.92;50.70;100820.31;7283328;19;129774;-37
2024/01/30 04:00:23;;;;;;;344.17;14.60;;;;;;;19.90;51.86;100814.41;7287616;19;130491;-39
2024/01/30 04:02:48;;;;;;;269.52;11.88;;;;;;;19.90;51.97;100815.22;7286417;19;130416;-37
2024/01/30 04:05:14;;;;;;;225.00;10.00;;;;;;;19.89;51.26;100813.53;7290618;19;131138;-39
2024/01/30 04:07:39;;;;;;;211.40;9.48;;;;;;;19.91;51.74;100810.84;7282842;19;130344;-37
2024/01/30 04:10:05;;;;;;;491.48;21.48;;;;;;;19.86;51.45;100811.13;7284538;19;129528;-38
2024/01/30 04:12:31;;;;;;;186.43;8.10;;;;;;;19.88;51.60;100805.81;7285489;19;131006;-38
2024/01/30 04:14:57;;;;;;;201.10;8.73;;;;;;;19.72;50.72;100789.50;7289832;19;130095;-38
2024/01/30 04:17:22;;;;;;;175.38;8.07;;;;;;;19.89;50.81;100810.09;7288464;19;129817;-38
2024/01/30 04:19:47;;;;;;;235.40;10.15;;;;;;;19.73;49.63;100780.72;7289508;19;130125;-38
2024/01/30 04:22:13;;;;;;;162.07;7.30;;;;;;;19.90;50.18;100811.78;7284671;19;130376;-38
2024/01/30 04:24:38;;;;;;;169.70;7.75;;;;;;;19.93;49.35;100814.19;7293702;19;129990;-38
2024/01/30 04:27:04;;;;;;;173.73;7.65;;;;;;;19.93;49.50;100808.97;7299130;19;131561;-39
2024/01/30 04:29:29;;;;;;;236.02;10.05;;;;;;;19.90;50.39;100810.00;7296343;19;130182;-38
2024/01/30 04:31:54;;;;;;;186.20;8.50;;;;;;;19.79;50.25;100807.25;7294721;19;130304;-37
2024/01/30 04:34:20;;;;;;;201.80;9.07;;;;;;;19.73;50.50;100812.03;7296431;19;129809;-38
2024/01/30 04:36:46;;;;;;;205.15;8.88;;;;;;;19.67;50.33;100807.22;7297685;19;130500;-36
2024/01/30 04:39:12;;;;;;;267.57;11.53;;;;;;;19.53;51.10;100783.75;7293843;19;130237;-38
2024/01/30 04:41:37;;;;;;;174.43;8.20;;;;;;;19.59;50.60;100772.91;7294368;19;132207;-37
2024/01/30 04:44:03;;;;;;;104.75;5.00;;;;;;;20.27;48.79;100808.44;7296559;19;132865;-39
2024/01/30 04:46:28;;;;;;;241.65;10.50;;;;;;;21.37;46.26;100798.19;7296303;19;129020;-39
2024/01/30 04:48:54;;;;;;;199.50;8.60;;;;;;;22.25;44.87;100797.81;7296617;19;130159;-38
2024/01/30 04:51:19;;;;;;;249.40;10.80;;;;;;;22.75;43.37;100771.25;7294169;19;131779;-38
2024/01/30 04:53:44;;;;;;;175.18;7.63;;;;;;;23.14;42.17;100789.97;7296419;19;131582;-38
2024/01/30 04:56:10;;;;;;;270.88;11.90;;;;;;;23.71;41.59;100789.75;7295043;19;129770;-37
2024/01/30 04:58:35;;;;;;;178.88;7.68;;;;;;;23.91;40.67;100785.50;7294289;19;130195;-38
2024/01/30 05:01:02;;;;;;;203.23;9.47;;;;;;;23.96;40.74;100799.94;7292311;19;129519;-38
2024/01/30 05:03:27;;;;;;;207.07;9.63;;;;;;;24.01;40.84;100796.97;7295700;19;133440;-38
2024/01/30 05:05:52;;;;;;;256.63;10.88;;;;;;;23.90;41.23;100791.72;7296539;19;130907;-39
2024/01/30 05:08:18;;;;;;;212.93;9.32;;;;;;;23.77;41.08;100763.00;7295788;19;130278;-38
2024/01/30 05:10:44;;;;;;;194.80;8.87;;;;;;;23.09;42.03;100799.13;7291972;19;130339;-38
2024/01/30 05:13:09;;;;;;;160.20;7.20;;;;;;;22.33;43.45;100774.50;7296235;19;129787;-37
2024/01/30 05:15:35;;;;;;;292.45;12.32;;;;;;;22.16;44.35;100793.25;7292994;19;129007;-38
2024/01/30 05:18:00;;;;;;;158.80;7.47;;;;;;;21.95;44.91;100799.13;7296266;19;129494;-38
2024/01/30 05:20:27;;;;;;;213.48;9.77;;;;;;;21.85;45.44;100798.13;7297445;19;131837;-38
2024/01/30 05:22:53;;;;;;;223.85;10.15;;;;;;;22.47;43.96;100795.25;7294020;19;130903;-38
2024/01/30 05:25:19;;;;;;;259.75;11.88;;;;;;;22.45;44.28;100784.03;7295393;19;129215;-38
2024/01/30 05:27:44;;;;;;;206.15;9.45;;;;;;;22.40;44.80;100799.28;7293679;19;131474;-38
2024/01/30 05:30:10;;;;;;;216.57;9.75;;;;;;;22.12;45.37;100794.44;7291104;19;132653;-39
2024/01/30 05:32:35;;;;;;;245.47;10.80;;;;;;;22.03;45.87;100789.88;7285652;19;130384;-37
2024/01/30 05:35:01;;;;;;;331.95;15.43;;;;;;;21.82;46.14;100780.03;7290053;19;131047;-37
2024/01/30 05:37:26;;;;;;;200.13;9.60;;;;;;;21.74;46.46;100784.13;7291641;19;132146;-38
2024/01/30 05:39:51;;;;;;;182.48;8.18;;;;;;;21.56;47.74;100788.94;7285722;19;130369;-39
2024/01/30 05:42:17;;;;;;;257.10;11.52;;;;;;;21.40;47.92;100790.94;7285740;19;129402;-38
2024/01/30 05:44:42;;;;;;;206.43;9.35;;;;;;;21.22;48.46;100794.88;7290367;19;131127;-36
2024/01/30 05:47:08;;;;;;;228.40;10.50;;;;;;;21.08;48.58;100787.19;7290251;19;131096;-38
2024/01/30 05:49:33;;;;;;;232.90;10.77;;;;;;;20.77;49.03;100792.81;7283306;19;131077;-37
2024/01/30 05:51:58;;;;;;;210.10;9.48;;;;;;;20.56;49.74;100789.88;7291031;19;129166;-38
2024/01/30 05:54:24;;;;;;;172.05;8.18;;;;;;;20.43;49.40;100799.50;7294169;19;129766;-44
2024/01/30 05:56:49;;;;;;;157.60;8.02;;;;;;;20.33;49.70;100793.22;7294268;19;133032;-37
2024/01/30 05:59:14;;;;;;;257.38;11.38;;;;;;;20.29;50.57;100790.91;7294068;19;131009;-38
2024/01/30 06:01:49;;;;;;;186.75;8.77;;;;;;;20.23;50.92;100796.56;7293025;19;129775;-36
2024/01/30 06:04:14;;;;;;;219.07;10.02;;;;;;;20.21;50.59;100787.97;7293113;19;130952;-38
2024/01/30 06:06:40;;;;;;;193.20;8.85;;;;;;;20.16;50.77;100790.88;7293399;19;130199;-39
2024/01/30 06:09:08;;;;;;;266.20;12.00;;;;;;;20.15;50.75;100786.59;7284910;19;131426;-38
2024/01/30 06:11:34;;;;;;;225.65;10.13;;;;;;;20.14;50.85;100794.50;7286668;19;129582;-39
2024/01/30 06:13:59;;;;;;;236.55;10.85;;;;;;;20.11;50.87;100792.09;7291330;19;129639;-38
2024/01/30 06:16:29;;;;;;;218.05;9.88;;;;;;;20.10;50.76;100785.19;7288040;19;131060;-38
2024/01/30 06:18:55;;;;;;;202.73;8.93;;;;;;;20.07;50.35;100791.47;7291619;19;130366;-38
2024/01/30 06:21:20;;;;;;;326.83;14.53;;;;;;;20.10;50.47;100790.41;7282057;19;129996;-37
2024/01/30 06:23:45;;;;;;;173.73;7.93;;;;;;;20.14;50.92;100802.34;7287329;19;130532;-38
2024/01/30 06:26:11;;;;;;;200.77;9.23;;;;;;;20.20;49.83;100801.94;7287842;19;131274;-36
2024/01/30 06:28:36;;;;;;;284.48;12.68;;;;;;;20.25;49.77;100805.94;7291377;19;130282;-39
2024/01/30 06:31:01;;;;;;;164.50;7.70;;;;;;;20.19;49.58;100784.63;7290696;19;129607;-38
2024/01/30 06:33:27;;;;;;;211.82;9.70;;;;;;;20.28;48.74;100792.69;7290664;19;129409;-38
2024/01/30 06:35:52;;;;;;;203.75;8.55;;;;;;;20.32;49.38;100796.78;7288461;19;131403;-37
2024/01/30 06:38:17;;;;;;;298.38;12.40;;;;;;;20.16;49.61;100790.06;7290847;19;130456;-37
2024/01/30 06:40:43;;;;;;;231.95;10.35;;;;;;;20.06;50.73;100788.97;7292915;19;131769;-39
2024/01/30 06:43:08;;;;;;;225.00;10.02;;;;;;;20.03;50.60;100794.38;7288638;19;133298;-39
2024/01/30 06:45:34;;;;;;;280.10;13.00;;;;;;;20.01;50.78;100791.03;7283540;19;130619;-37
2024/01/30 06:48:00;;;;;;;220.93;10.10;;;;;;;19.91;51.12;100782.13;7283898;19;131373;-39
2024/01/30 06:50:25;;;;;;;218.07;10.43;;;;;;;19.96;51.10;100793.09;7291239;19;129451;-38
2024/01/30 06:52:51;;;;;;;242.85;10.52;;;;;;;19.92;51.10;100792.47;7290761;19;130996;-39
2024/01/30 06:55:18;;;;;;;148.65;6.78;;;;;;;19.91;51.06;100784.72;7292928;19;129516;-37
2024/01/30 06:57:43;;;;;;;164.40;7.65;;;;;;;19.96;51.24;100788.72;7290389;19;130312;-37
2024/01/30 07:00:09;;;;;;;136.75;6.53;;;;;;;19.76;51.60;100759.63;7288656;19;130219;-38
2024/01/30 07:02:35;;;;;;;277.60;12.83;;;;;;;19.91;51.41;100789.97;7290683;19;129297;-37
2024/01/30 07:05:00;;;;;;;124.57;6.05;;;;;;;19.89;51.42;100797.03;7291295;19;130169;-37
2024/01/30 07:07:26;;;;;;;183.30;8.10;;;;;;;19.85;52.04;100803.41;7292523;19;130520;-37
2024/01/30 07:09:56;;;;;;;187.35;8.45;;;;;;;19.82;51.95;100793.16;7290564;19;131027;-37
2024/01/30 07:12:21;;;;;;;233.20;10.40;;;;;;;19.73;51.52;100781.56;7291025;19;133340;-38
2024/01/30 07:14:47;;;;;;;170.02;7.78;;;;;;;19.82;51.54;100794.00;7292157;19;130664;-38
2024/01/30 07:17:13;;;;;;;143.68;6.50;;;;;;;19.81;50.64;100804.53;7292980;19;131762;-37
2024/01/30 07:19:38;;;;;;;160.65;7.88;;;;;;;19.83;51.27;100802.66;7290334;19;129355;-38
2024/01/30 07:22:04;;;;;;;224.75;10.15;;;;;;;19.80;50.96;100797.66;7289438;19;129552;-39
2024/01/30 07:24:29;;;;;;;219.30;9.35;;;;;;;19.72;50.82;100779.88;7293533;19;130039;-38
2024/01/30 07:26:54;;;;;;;117.95;6.05;;;;;;;19.83;51.04;100808.72;7291823;19;130167;-35
2024/01/30 07:29:20;;;;;;;167.55;7.75;;;;;;;19.84;50.77;100796.50;7290232;19;129878;-38
2024/01/30 07:31:45;;;;;;;242.38;10.63;;;;;;;19.88;50.96;100790.16;7289640;19;129454;-39
2024/01/30 07:34:11;;;;;;;188.80;8.43;;;;;;;20.29;49.65;100796.97;7288221;19;130609;-40
2024/01/30 07:36:37;;;;;;;204.63;9.07;;;;;;;20.56;48.72;100799.53;7291946;19;131677;-39
2024/01/30 07:39:02;;;;;;;181.48;7.78;;;;;;;20.48;48.65;100765.22;7290874;19;132000;-39
2024/01/30 07:41:27;;;;;;;223.07;9.60;;;;;;;20.77;48.58;100798.06;7289816;19;129503;-36
2024/01/30 07:43:53;;;;;;;99.75;5.15;;;;;;;20.72;48.06;100764.38;7290342;19;130384;-39
2024/01/30 07:46:18;;;;;;;206.38;8.77;;;;;;;20.93;48.29;100798.66;7290288;19;131139;-40
2024/01/30 07:48:44;;;;;;;246.23;10.50;;;;;;;20.82;48.48;100806.41;7289512;19;131309;-36
2024/01/30 07:51:09;;;;;;;210.55;9.25;;;;;;;20.84;48.65;100804.50;7288629;19;131505;-38
2024/01/30 07:53:34;;;;;;;216.45;9.75;;;;;;;20.78;48.17;100784.03;7290862;19;130696;-32
2024/01/30 07:56:00;;;;;;;92.88;4.82;;;;;;;20.74;48.68;100808.72;7285816;19;130331;-39
2024/01/30 07:58:27;;;;;;;242.02;10.18;;;;;;;20.66;48.72;100796.16;7290672;19;129104;-40
2024/01/30 08:00:53;;;;;;;214.93;10.05;;;;;;;20.61;49.25;100802.63;7297656;19;129383;-35
2024/01/30 08:03:18;;;;;;;180.27;8.27;;;;;;;20.33;49.85;100776.69;7298619;19;130170;-37
2024/01/30 08:05:44;;;;;;;195.73;8.55;;;;;;;20.22;49.84;100797.47;7295622;19;129620;-40
2024/01/30 08:08:09;;;;;;;196.75;9.10;;;;;;;20.12;50.04;100799.84;7299029;19;131174;-40
2024/01/30 08:10:35;;;;;;;237.65;10.85;;;;;;;20.02;50.67;100793.53;7296777;19;129122;-34
2024/01/30 08:13:01;;;;;;;84.87;4.50;;;;;;;19.97;50.40;100800.84;7297691;19;131426;-39
2024/01/30 08:15:27;;;;;;;194.25;8.32;;;;;;;19.95;50.88;100794.06;7296509;19;130567;-38
2024/01/30 08:17:57;;;;;;;280.45;11.57;;;;;;;19.94;50.78;100789.75;7294660;19;131336;-41
2024/01/30 08:20:23;;;;;;;208.90;9.18;;;;;;;19.90;51.06;100793.50;7298335;19;130364;-34
2024/01/30 08:22:49;;;;;;;143.30;6.60;;;;;;;19.90;50.24;100799.53;7296302;19;130279;-38
2024/01/30 08:25:14;;;;;;;191.38;8.18;;;;;;;19.91;50.36;100795.19;7297360;19;130417;-39
2024/01/30 08:27:40;;;;;;;282.05;11.57;;;;;;;19.92;50.45;100792.47;7296941;19;129170;-37
2024/01/30 08:30:06;;;;;;;174.00;7.97;;;;;;;19.72;51.35;100764.22;7298397;19;130605;-38
2024/01/30 08:32:32;;;;;;;;;;;;;;;19.86;53.23;100792.88;7293020;19;131622;-38
2024/01/30 08:34:57;;;;;;;157.73;6.75;;;;;;;19.86;51.85;100798.09;7297239;19;131945;-38
2024/01/30 08:37:23;;;;;;;243.45;10.38;;;;;;;19.92;51.13;100802.06;7296604;19;129668;-38
2024/01/30 08:39:49;;;;;;;179.80;8.02;;;;;;;19.79;51.15;100769.88;7297255;19;129584;-36
2024/01/30 08:42:14;;;;;;;180.93;7.78;;;;;;;19.97;51.65;100795.63;7293340;19;131085;-38
2024/01/30 08:44:39;;;;;;;220.40;10.45;;;;;;;19.98;51.03;100786.84;7296349;19;131195;-40
2024/01/30 08:47:05;;;;;;;199.40;8.40;;;;;;;19.97;51.19;100790.38;7295992;19;130146;-36
2024/01/30 08:49:31;;;;;;;179.32;7.95;;;;;;;19.96;50.66;100798.31;7297302;19;130026;-39
2024/01/30 08:51:56;;;;;;;172.20;7.37;;;;;;;20.00;50.67;100789.38;7292596;19;130816;-34
2024/01/30 08:54:22;;;;;;;181.75;8.07;;;;;;;19.99;50.97;100783.31;7291256;19;130453;-37
2024/01/30 08:56:48;;;;;;;261.70;11.27;;;;;;;19.97;50.27;100779.09;7292398;19;129333;-37
2024/01/30 08:59:13;;;;;;;206.77;8.57;;;;;;;20.04;50.47;100796.88;7296107;19;129205;-40
2024/01/30 09:01:38;;;;;;;177.13;8.15;;;;;;;20.12;49.76;100794.59;7293279;19;132308;-36
2024/01/30 09:04:04;;;;;;;226.93;9.88;;;;;;;20.16;49.78;100816.16;7296478;19;132649;-40
2024/01/30 09:06:29;;;;;;;191.73;8.50;;;;;;;20.05;50.30;100802.94;7294925;19;129951;-39
2024/01/30 09:08:54;;;;;;;185.23;8.07;;;;;;;19.96;50.70;100804.38;7293289;19;129180;-39
2024/01/30 09:11:20;;;;;;;241.65;10.07;;;;;;;19.77;50.50;100792.59;7289265;19;130790;-40
2024/01/30 09:13:45;;;;;;;271.58;11.27;;;;;;;19.86;50.96;100818.97;7287308;19;131086;-38
2024/01/30 09:16:11;;;;;;;232.27;10.07;;;;;;;19.83;51.01;100813.09;7289731;19;131964;-38
2024/01/30 09:18:36;;;;;;;212.88;9.15;;;;;;;19.83;51.56;100813.94;7296056;19;132043;-41
2024/01/30 09:21:01;;;;;;;228.15;9.82;;;;;;;19.83;51.81;100823.53;7294076;19;130874;-41
2024/01/30 09:23:27;;;;;;;191.68;8.27;;;;;;;19.81;51.92;100830.63;7294529;19;131443;-38
2024/01/30 09:25:53;;;;;;;175.33;7.53;;;;;;;19.82;52.15;100820.09;7294833;19;129382;-35
2024/01/30 09:28:18;;;;;;;156.32;6.82;;;;;;;19.82;51.50;100824.47;7294891;19;130123;-39
2024/01/30 09:30:44;;;;;;;224.82;9.13;;;;;;;19.79;52.07;100822.91;7295101;19;132334;-40
2024/01/30 09:33:09;;;;;;;200.57;8.50;;;;;;;19.75;52.03;100826.63;7294644;19;131599;-41
2024/01/30 09:35:38;;;;;;;190.27;8.00;;;;;;;19.76;52.24;100824.88;7294989;19;129858;-35
2024/01/30 09:38:04;;;;;;;165.35;7.38;;;;;;;19.77;51.58;100826.53;7294096;19;131519;-38
2024/01/30 09:40:29;;;;;;;246.73;10.27;;;;;;;19.82;51.63;100816.63;7294539;19;129365;-36
2024/01/30 09:42:54;;;;;;;219.77;9.05;;;;;;;19.85;51.36;100816.47;7294654;19;130338;-37
2024/01/30 09:45:25;;;;;;;195.02;8.15;;;;;;;19.87;51.79;100815.41;7293510;19;130801;-41
2024/01/30 09:47:52;;;;;;;235.90;10.20;;;;;;;19.86;51.64;100812.91;7293600;19;129499;-40
2024/01/30 09:50:20;;;;;;;202.48;8.77;;;;;;;19.86;51.53;100810.28;7294339;19;131171;-35
2024/01/30 09:52:47;;;;;;;240.48;10.55;;;;;;;19.82;51.50;100803.59;7292111;19;130405;-39
2024/01/30 09:55:12;;;;;;;;;;;;;;;19.86;52.28;100800.69;7293877;19;129744;-34
2024/01/30 09:57:37;;;;;;;165.65;6.95;;;;;;;19.86;50.64;100794.63;7289661;19;130581;-35
2024/01/30 10:00:04;;;;;;;241.13;9.88;;;;;;;19.83;50.96;100792.22;7293032;19;130177;-38
2024/01/30 10:02:32;;;;;;;238.82;10.63;;;;;;;19.84;51.16;100794.75;7286565;19;132749;-38
2024/01/30 10:04:57;;;;;;;194.48;8.20;;;;;;;19.76;50.59;100783.13;7293642;19;129515;-37
2024/01/30 10:07:23;;;;;;;225.30;9.88;;;;;;;19.84;50.93;100788.66;7291407;19;129325;-36
2024/01/30 10:09:49;;;;;;;275.00;11.63;;;;;;;19.83;50.63;100797.44;7292145;19;132014;-40
2024/01/30 10:12:15;;;;;;;161.38;7.22;;;;;;;19.84;50.20;100788.66;7294133;19;133102;-38
2024/01/30 10:14:41;;;;;;;179.57;7.57;;;;;;;19.91;50.36;100789.97;7293525;19;131225;-35
2024/01/30 10:17:10;;;;;;;194.68;8.05;;;;;;;19.93;50.39;100782.88;7295565;19;131712;-40
2024/01/30 10:19:36;;;;;;;181.32;7.50;;;;;;;19.95;50.25;100781.00;7293874;19;130817;-41
2024/01/30 10:22:05;;;;;;;221.27;9.63;;;;;;;19.82;50.61;100759.22;7290612;19;131449;-40
2024/01/30 10:24:31;;;;;;;190.05;8.20;;;;;;;19.98;50.29;100770.34;7292975;19;129316;-39
2024/01/30 10:26:56;;;;;;;269.52;11.23;;;;;;;19.94;50.69;100779.31;7292820;19;131561;-37
2024/01/30 10:29:22;;;;;;;235.57;9.95;;;;;;;19.90;50.58;100772.63;7292611;19;130300;-33
2024/01/30 10:32:01;;;;;;;212.50;9.15;;;;;;;19.94;50.79;100771.47;7291936;19;130354;-38
2024/01/30 10:34:27;;;;;;;180.88;7.97;;;;;;;19.98;50.78;100767.75;7293543;19;131131;-34
2024/01/30 10:37:06;;;;;;;112.10;5.10;;;;;;;19.96;50.79;100767.00;7293714;19;130709;-37
2024/01/30 10:39:36;;;;;;;171.55;7.60;;;;;;;20.00;50.88;100768.50;7292892;19;130657;-38
2024/01/30 10:42:05;;;;;;;168.77;7.20;;;;;;;19.99;51.12;100759.81;7289290;19;130661;-38
2024/01/30 10:44:37;;;;;;;168.98;7.38;;;;;;;19.88;51.03;100759.69;7294474;19;129245;-38
2024/01/30 10:47:08;;;;;;;180.07;8.35;;;;;;;19.81;51.36;100762.78;7291425;19;129040;-39
2024/01/30 10:49:34;;;;;;;170.38;7.55;;;;;;;19.77;50.98;100746.47;7292154;19;130111;-39
2024/01/30 10:52:00;;;;;;;189.00;7.87;;;;;;;19.61;50.94;100745.81;7289568;19;130064;-36
2024/01/30 10:54:27;;;;;;;245.10;10.35;;;;;;;19.81;51.14;100747.13;7293030;19;130898;-36